createdAt,value
2019-05-07T00:00:59.823Z,1.70
2019-05-07T00:03:28.495Z,1.70
2019-05-07T00:05:57.199Z,1.60
2019-05-07T00:08:25.895Z,1.60
2019-05-07T00:10:54.791Z,1.70
2019-05-07T00:13:23.495Z,1.60
2019-05-07T00:15:52.807Z,1.50
2019-05-07T00:18:22.931Z,1.60
2019-05-07T00:20:52.965Z,1.60
2019-05-07T00:23:23.179Z,1.60
2019-05-07T00:25:52.902Z,1.60
2019-05-07T00:28:22.967Z,1.50
2019-05-07T00:30:52.173Z,1.50
2019-05-07T00:33:22.729Z,1.50
2019-05-07T00:35:56.011Z,1.50
2019-05-07T00:38:26.353Z,1.50
2019-05-07T00:40:59.649Z,1.40
2019-05-07T00:43:32.113Z,1.40
2019-05-07T00:46:02.379Z,1.40
2019-05-07T00:48:32.792Z,1.40
2019-05-07T00:51:19.471Z,1.30
2019-05-07T00:53:48.159Z,1.30
2019-05-07T00:56:16.852Z,1.40
2019-05-07T00:58:45.626Z,1.40
2019-05-07T01:01:14.315Z,1.40
2019-05-07T01:03:43.011Z,1.40
2019-05-07T01:06:12.895Z,1.30
2019-05-07T01:08:43.011Z,1.40
2019-05-07T01:11:13.190Z,1.40
2019-05-07T01:13:43.267Z,1.30
2019-05-07T01:16:12.911Z,1.20
2019-05-07T01:18:42.174Z,1.30
2019-05-07T01:21:13.100Z,1.20
2019-05-07T01:23:42.798Z,1.20
2019-05-07T01:26:12.449Z,1.20
2019-05-07T01:28:59.582Z,1.20
2019-05-07T01:31:32.917Z,1.10
2019-05-07T01:34:03.451Z,1.00
2019-05-07T01:36:32.141Z,1.00
2019-05-07T01:39:02.632Z,1.00
2019-05-07T01:41:32.650Z,1.00
2019-05-07T01:44:02.038Z,1.00
2019-05-07T01:46:32.469Z,1.00
2019-05-07T01:49:03.091Z,1.00
2019-05-07T01:51:32.641Z,1.00
2019-05-07T01:54:02.216Z,1.00
2019-05-07T01:56:33.079Z,0.90
2019-05-07T01:59:02.439Z,0.80
2019-05-07T02:01:33.118Z,0.80
2019-05-07T02:04:06.308Z,0.80
2019-05-07T02:06:36.646Z,0.80
2019-05-07T02:09:17.635Z,0.80
2019-05-07T02:12:03.013Z,0.70
2019-05-07T02:14:33.013Z,0.70
2019-05-07T02:17:02.977Z,0.70
2019-05-07T02:19:32.981Z,0.60
2019-05-07T02:22:02.822Z,0.70
2019-05-07T02:24:33.712Z,0.70
2019-05-07T02:27:03.016Z,0.60
2019-05-07T02:29:32.557Z,0.50
2019-05-07T02:32:04.298Z,0.50
2019-05-07T02:34:34.306Z,0.40
2019-05-07T02:37:04.068Z,0.50
2019-05-07T02:39:44.528Z,0.50
2019-05-07T02:42:13.373Z,0.60
2019-05-07T02:45:04.226Z,0.60
2019-05-07T02:47:33.509Z,0.70
2019-05-07T02:50:03.945Z,0.70
2019-05-07T02:52:53.647Z,0.80
2019-05-07T02:55:36.560Z,0.80
2019-05-07T02:58:05.258Z,0.90
2019-05-07T03:00:34.244Z,0.90
2019-05-07T03:03:04.099Z,0.90
2019-05-07T03:05:34.819Z,0.90
2019-05-07T03:08:04.228Z,1.00
2019-05-07T03:10:34.142Z,1.00
2019-05-07T03:13:03.436Z,0.90
2019-05-07T03:15:33.445Z,0.90
2019-05-07T03:18:03.605Z,0.80
2019-05-07T03:20:35.191Z,0.90
2019-05-07T03:23:04.543Z,0.90
2019-05-07T03:25:54.249Z,0.80
2019-05-07T03:28:23.437Z,0.80
2019-05-07T03:31:05.717Z,0.90
2019-05-07T03:33:47.660Z,0.90
2019-05-07T03:36:17.683Z,1.00
2019-05-07T03:38:46.474Z,1.10
2019-05-07T03:41:15.148Z,1.20
2019-05-07T03:43:44.407Z,1.20
2019-05-07T03:46:14.739Z,1.30
2019-05-07T03:48:44.902Z,1.30
2019-05-07T03:51:13.600Z,1.30
2019-05-07T03:53:43.517Z,1.30
2019-05-07T03:56:33.042Z,1.40
2019-05-07T03:59:03.573Z,1.40
2019-05-07T04:01:33.445Z,1.50
2019-05-07T04:04:03.758Z,1.80
2019-05-07T04:06:33.207Z,1.90
2019-05-07T04:09:03.485Z,2.00
2019-05-07T04:11:33.758Z,2.00
2019-05-07T04:14:02.887Z,2.10
2019-05-07T04:16:33.197Z,2.10
2019-05-07T04:19:03.825Z,2.20
2019-05-07T04:21:34.383Z,2.30
2019-05-07T04:24:13.855Z,2.40
2019-05-07T04:26:56.407Z,2.40
2019-05-07T04:29:25.172Z,2.40
2019-05-07T04:31:53.865Z,2.50
2019-05-07T04:34:24.199Z,2.50
2019-05-07T04:36:53.566Z,2.60
2019-05-07T04:39:23.187Z,2.60
2019-05-07T04:41:53.023Z,2.70
2019-05-07T04:44:23.508Z,2.80
2019-05-07T04:46:53.299Z,2.90
2019-05-07T04:49:23.819Z,3.10
2019-05-07T04:51:57.260Z,3.20
2019-05-07T04:54:25.962Z,3.40
2019-05-07T04:56:54.670Z,3.70
2019-05-07T04:59:23.860Z,5.40
2019-05-07T05:01:57.136Z,6.00
2019-05-07T05:04:30.717Z,5.60
2019-05-07T05:06:56.220Z,5.80
2019-05-07T05:09:24.959Z,7.20
2019-05-07T05:11:53.608Z,7.90
2019-05-07T05:14:22.911Z,8.60
2019-05-07T05:16:52.449Z,10.00
2019-05-07T05:19:22.993Z,10.50
2019-05-07T05:22:09.755Z,8.80
2019-05-07T05:24:42.273Z,8.00
2019-05-07T05:27:12.186Z,9.10
2019-05-07T05:29:42.959Z,9.30
2019-05-07T05:32:11.989Z,9.00
2019-05-07T05:34:42.571Z,8.50
2019-05-07T05:37:11.957Z,8.00
2019-05-07T05:39:42.656Z,6.90
2019-05-07T05:42:18.752Z,6.10
2019-05-07T05:44:47.451Z,5.80
2019-05-07T05:47:16.144Z,5.50
2019-05-07T05:49:45.174Z,5.30
2019-05-07T05:52:15.502Z,5.00
2019-05-07T05:54:45.759Z,4.80
2019-05-07T05:57:16.091Z,4.90
2019-05-07T06:00:02.410Z,4.90
2019-05-07T06:02:35.880Z,5.10
2019-05-07T06:05:07.406Z,5.40
2019-05-07T06:07:37.744Z,6.30
2019-05-07T06:10:09.175Z,6.60
2019-05-07T06:12:42.857Z,6.30
2019-05-07T06:15:16.423Z,6.00
2019-05-07T06:17:58.839Z,5.50
2019-05-07T06:20:32.149Z,5.40
2019-05-07T06:23:12.907Z,5.20
2019-05-07T06:25:43.482Z,5.20
2019-05-07T06:28:12.760Z,5.20
2019-05-07T06:30:41.885Z,5.00
2019-05-07T06:33:12.431Z,4.80
2019-05-07T06:35:42.943Z,4.70
2019-05-07T06:38:12.580Z,4.50
2019-05-07T06:40:43.084Z,4.30
2019-05-07T06:43:21.687Z,4.30
2019-05-07T06:45:51.857Z,4.30
2019-05-07T06:48:34.671Z,4.40
2019-05-07T06:50:57.082Z,4.60
2019-05-07T06:53:32.965Z,5.30
2019-05-07T06:56:03.026Z,7.40
2019-05-07T06:58:33.635Z,10.40
2019-05-07T07:01:07.127Z,13.00
2019-05-07T07:03:41.892Z,12.70
2019-05-07T07:06:12.208Z,10.70
2019-05-07T07:08:48.368Z,9.40
2019-05-07T07:11:18.703Z,8.20
2019-05-07T07:13:47.396Z,7.10
2019-05-07T07:16:16.159Z,6.40
2019-05-07T07:18:51.797Z,6.10
2019-05-07T07:21:15.267Z,6.20
2019-05-07T07:23:43.958Z,6.10
2019-05-07T07:26:12.780Z,6.00
2019-05-07T07:28:42.964Z,6.00
2019-05-07T07:31:16.258Z,6.00
2019-05-07T07:36:28.767Z,5.60
2019-05-07T07:38:57.467Z,5.60
2019-05-07T07:41:32.685Z,5.70
2019-05-07T07:44:02.084Z,5.70
2019-05-07T07:46:33.032Z,5.70
2019-05-07T07:49:07.795Z,5.90
2019-05-07T07:51:40.727Z,6.80
2019-05-07T07:54:02.619Z,11.10
2019-05-07T07:56:55.615Z,12.90
2019-05-07T07:59:32.990Z,11.60
2019-05-07T08:02:06.117Z,10.10
2019-05-07T08:04:34.908Z,8.70
2019-05-07T08:07:03.589Z,7.70
2019-05-07T08:09:33.575Z,7.10
2019-05-07T08:12:02.769Z,7.00
2019-05-07T08:14:32.563Z,6.70
2019-05-07T08:17:02.916Z,6.50
2019-05-07T08:19:32.744Z,6.30
2019-05-07T08:22:02.832Z,5.90
2019-05-07T08:24:32.335Z,5.80
2019-05-07T08:27:02.367Z,5.90
2019-05-07T08:29:32.549Z,6.00
2019-05-07T08:32:22.370Z,5.90
2019-05-07T08:35:07.931Z,5.70
2019-05-07T08:37:36.680Z,5.60
2019-05-07T08:40:07.567Z,5.50
2019-05-07T08:42:36.267Z,5.70
2019-05-07T08:45:24.914Z,5.90
2019-05-07T08:47:55.415Z,5.90
2019-05-07T08:50:24.111Z,6.20
2019-05-07T08:52:52.811Z,7.20
2019-05-07T08:55:21.835Z,7.40
2019-05-07T08:57:52.112Z,7.40
2019-05-07T09:00:22.825Z,7.50
2019-05-07T09:02:52.457Z,7.50
2019-05-07T09:05:22.102Z,8.10
2019-05-07T09:07:51.756Z,10.70
2019-05-07T09:10:21.841Z,10.70
2019-05-07T09:12:52.560Z,9.40
2019-05-07T09:15:22.643Z,7.90
2019-05-07T09:17:52.697Z,7.60
2019-05-07T09:20:22.876Z,7.40
2019-05-07T09:22:51.896Z,7.50
2019-05-07T09:25:22.316Z,7.20
2019-05-07T09:27:52.548Z,7.70
2019-05-07T09:30:28.276Z,8.50
2019-05-07T09:33:02.314Z,9.20
2019-05-07T09:35:39.876Z,9.70
2019-05-07T09:38:08.696Z,10.10
2019-05-07T09:40:37.394Z,10.20
2019-05-07T09:43:06.103Z,10.00
2019-05-07T09:45:34.795Z,9.50
2019-05-07T09:48:03.487Z,8.70
2019-05-07T09:50:32.634Z,8.20
2019-05-07T09:53:02.320Z,7.60
2019-05-07T09:55:32.631Z,7.30
2019-05-07T09:58:01.991Z,7.10
2019-05-07T10:00:32.042Z,7.40
2019-05-07T10:03:00.829Z,7.40
2019-05-07T10:05:29.629Z,7.60
2019-05-07T10:07:58.831Z,8.10
2019-05-07T10:10:27.523Z,8.60
2019-05-07T10:13:12.082Z,9.20
2019-05-07T10:15:41.833Z,9.60
2019-05-07T10:18:15.184Z,10.20
2019-05-07T10:20:45.364Z,10.90
2019-05-07T10:23:22.404Z,11.20
2019-05-07T10:25:50.975Z,11.90
2019-05-07T10:28:20.074Z,11.70
2019-05-07T10:30:48.835Z,10.80
2019-05-07T10:33:17.539Z,10.30
2019-05-07T10:35:46.328Z,9.00
2019-05-07T10:38:15.219Z,8.80
2019-05-07T10:40:44.015Z,9.50
2019-05-07T10:43:12.737Z,10.20
2019-05-07T10:46:02.365Z,10.30
2019-05-07T10:48:35.315Z,10.50
2019-05-07T10:53:52.644Z,10.10
2019-05-07T10:56:22.317Z,11.40
2019-05-07T10:58:52.197Z,11.90
2019-05-07T11:01:22.675Z,13.10
2019-05-07T11:03:51.816Z,12.80
2019-05-07T11:06:22.116Z,11.70
2019-05-07T11:08:51.909Z,10.10
2019-05-07T11:11:20.698Z,10.10
2019-05-07T11:13:49.391Z,10.20
2019-05-07T11:16:19.732Z,10.50
2019-05-07T11:18:51.819Z,10.10
2019-05-07T11:21:22.407Z,10.80
2019-05-07T11:23:52.201Z,11.50
2019-05-07T11:26:22.182Z,11.80
2019-05-07T11:28:51.008Z,11.00
2019-05-07T11:31:19.699Z,11.40
2019-05-07T11:33:48.399Z,12.70
2019-05-07T11:36:17.095Z,12.70
2019-05-07T11:38:45.799Z,12.70
2019-05-07T11:41:14.675Z,12.80
2019-05-07T11:43:47.439Z,12.70
2019-05-07T11:46:23.871Z,13.60
2019-05-07T11:49:00.199Z,12.50
2019-05-07T11:51:33.643Z,12.60
2019-05-07T11:54:09.660Z,13.30
2019-05-07T11:56:38.616Z,12.50
2019-05-07T11:59:07.311Z,11.80
2019-05-07T12:01:46.744Z,11.50
2019-05-07T12:04:08.487Z,11.20
2019-05-07T12:06:37.279Z,10.80
2019-05-07T12:09:07.583Z,10.00
2019-05-07T12:11:36.273Z,9.70
2019-05-07T12:14:05.134Z,9.40
2019-05-07T12:16:33.835Z,10.20
2019-05-07T12:19:02.640Z,10.30
2019-05-07T12:21:31.712Z,10.50
2019-05-07T12:24:02.173Z,11.20
2019-05-07T12:26:32.439Z,11.50
2019-05-07T12:29:01.138Z,11.70
2019-05-07T12:31:34.307Z,12.00
2019-05-07T12:34:07.659Z,12.00
2019-05-07T12:36:36.355Z,12.20
2019-05-07T12:39:08.023Z,11.60
2019-05-07T12:41:36.720Z,12.20
2019-05-07T12:44:07.042Z,13.40
2019-05-07T12:46:36.332Z,13.30
2019-05-07T12:49:05.727Z,13.70
2019-05-07T12:51:38.898Z,14.20
2019-05-07T12:54:18.739Z,13.40
2019-05-07T12:56:47.445Z,12.40
2019-05-07T12:59:16.131Z,12.30
2019-05-07T13:01:46.480Z,11.90
2019-05-07T13:04:25.828Z,12.20
2019-05-07T13:06:59.047Z,12.40
2019-05-07T13:09:27.743Z,12.40
2019-05-07T13:11:56.651Z,12.00
2019-05-07T13:14:25.935Z,11.60
2019-05-07T13:16:54.627Z,11.90
2019-05-07T13:19:23.331Z,11.50
2019-05-07T13:21:52.027Z,11.70
2019-05-07T13:24:22.853Z,11.90
2019-05-07T13:26:51.866Z,12.10
2019-05-07T13:29:22.190Z,11.70
2019-05-07T13:31:54.361Z,10.80
2019-05-07T13:34:23.263Z,10.60
2019-05-07T13:36:54.633Z,10.50
2019-05-07T13:39:34.537Z,11.00
2019-05-07T13:42:05.058Z,11.40
2019-05-07T13:44:41.059Z,11.30
2019-05-07T13:47:27.939Z,10.50
2019-05-07T13:49:57.018Z,10.30
2019-05-07T13:52:25.818Z,10.20
2019-05-07T13:54:54.810Z,10.20
2019-05-07T13:57:23.733Z,10.00
2019-05-07T13:59:53.291Z,10.30
2019-05-07T14:02:23.631Z,10.50
2019-05-07T14:04:52.728Z,10.10
2019-05-07T14:07:21.897Z,10.70
2019-05-07T14:10:09.860Z,11.30
2019-05-07T14:12:38.760Z,11.40
2019-05-07T14:15:07.855Z,11.30
2019-05-07T14:17:36.555Z,10.70
2019-05-07T14:20:06.834Z,10.20
2019-05-07T14:22:35.543Z,9.60
2019-05-07T14:25:05.839Z,9.70
2019-05-07T14:27:34.533Z,9.30
2019-05-07T14:30:04.207Z,9.80
2019-05-07T14:32:42.072Z,9.80
2019-05-07T14:35:15.727Z,10.20
2019-05-07T14:37:46.064Z,10.10
2019-05-07T14:40:15.286Z,10.30
2019-05-07T14:42:52.550Z,10.00
2019-05-07T14:45:23.556Z,10.00
2019-05-07T14:47:52.286Z,10.10
2019-05-07T14:50:22.649Z,10.20
2019-05-07T14:52:54.807Z,10.30
2019-05-07T14:55:22.301Z,10.20
2019-05-07T14:57:52.410Z,9.80
2019-05-07T15:00:22.563Z,10.10
2019-05-07T15:02:52.506Z,10.20
2019-05-07T15:05:22.398Z,10.00
2019-05-07T15:07:51.415Z,10.00
2019-05-07T15:10:22.057Z,10.20
2019-05-07T15:12:52.189Z,10.50
2019-05-07T15:15:21.984Z,10.80
2019-05-07T15:18:07.556Z,10.90
2019-05-07T15:20:36.255Z,10.80
2019-05-07T15:23:06.788Z,10.50
2019-05-07T15:25:35.491Z,10.10
2019-05-07T15:28:04.278Z,9.80
2019-05-07T15:30:34.815Z,9.40
2019-05-07T15:33:03.510Z,9.30
2019-05-07T15:35:32.211Z,8.90
2019-05-07T15:38:02.440Z,9.00
2019-05-07T15:40:33.000Z,8.90
2019-05-07T15:43:02.217Z,8.90
2019-05-07T15:45:31.139Z,9.10
2019-05-07T15:48:01.997Z,9.60
2019-05-07T15:50:32.059Z,10.10
2019-05-07T15:53:18.579Z,10.30
2019-05-07T15:55:47.271Z,10.20
2019-05-07T15:58:15.975Z,10.20
2019-05-07T16:00:44.663Z,9.90
2019-05-07T16:03:22.192Z,9.90
2019-05-07T16:05:52.871Z,9.80
2019-05-07T16:08:22.646Z,9.60
2019-05-07T16:10:53.141Z,9.30
2019-05-07T16:13:23.647Z,9.20
2019-05-07T16:15:52.885Z,9.20
2019-05-07T16:18:26.383Z,9.20
2019-05-07T16:20:55.078Z,9.50
2019-05-07T16:23:23.767Z,9.70
2019-05-07T16:25:52.858Z,9.90
2019-05-07T16:28:21.988Z,9.80
2019-05-07T16:31:10.091Z,9.70
2019-05-07T16:33:38.797Z,9.60
2019-05-07T16:36:07.551Z,9.40
2019-05-07T16:38:36.235Z,9.60
2019-05-07T16:41:04.927Z,9.60
2019-05-07T16:43:33.622Z,9.30
2019-05-07T16:46:02.526Z,9.20
2019-05-07T16:48:32.694Z,9.10
2019-05-07T16:51:02.345Z,9.00
2019-05-07T16:53:35.071Z,8.90
2019-05-07T16:56:02.923Z,8.80
2019-05-07T16:58:36.433Z,8.90
2019-05-07T17:01:15.870Z,8.80
2019-05-07T17:03:55.103Z,8.90
2019-05-07T17:06:25.185Z,8.80
2019-05-07T17:09:07.719Z,8.60
2019-05-07T17:11:36.488Z,8.50
2019-05-07T17:14:05.363Z,8.20
2019-05-07T17:16:34.043Z,8.20
2019-05-07T17:19:02.804Z,7.90
2019-05-07T17:21:32.474Z,7.80
2019-05-07T17:24:02.548Z,7.80
2019-05-07T17:26:31.459Z,7.80
2019-05-07T17:29:00.155Z,7.80
2019-05-07T17:31:29.083Z,7.80
2019-05-07T17:33:57.775Z,7.70
2019-05-07T17:36:26.463Z,7.70
2019-05-07T17:38:55.164Z,7.70
2019-05-07T17:41:27.210Z,7.60
2019-05-07T17:43:54.252Z,7.70
2019-05-07T17:46:23.044Z,7.80
2019-05-07T17:48:52.439Z,7.80
2019-05-07T17:51:39.384Z,7.70
2019-05-07T17:54:08.075Z,7.50
2019-05-07T17:56:36.771Z,7.50
2019-05-07T17:59:05.660Z,7.40
2019-05-07T18:01:36.039Z,7.50
2019-05-07T18:04:04.731Z,7.40
2019-05-07T18:06:33.423Z,7.30
2019-05-07T18:09:02.935Z,7.20
2019-05-07T18:11:32.464Z,7.10
2019-05-07T18:14:02.607Z,7.00
2019-05-07T18:16:33.079Z,6.90
2019-05-07T18:19:02.206Z,6.90
2019-05-07T18:21:32.545Z,6.90
2019-05-07T18:24:13.353Z,6.80
2019-05-07T18:26:33.770Z,6.80
2019-05-07T18:29:02.584Z,6.70
2019-05-07T18:31:51.315Z,6.60
2019-05-07T18:34:20.007Z,6.60
2019-05-07T18:36:48.875Z,6.50
2019-05-07T18:39:20.255Z,6.40
2019-05-07T18:41:47.899Z,6.20
2019-05-07T18:44:16.627Z,6.10
2019-05-07T18:46:45.292Z,6.00
2019-05-07T18:49:13.911Z,6.00
2019-05-07T18:51:42.767Z,5.90
2019-05-07T18:54:16.004Z,5.90
2019-05-07T18:56:42.211Z,5.90
2019-05-07T18:59:11.647Z,5.90
2019-05-07T19:01:42.272Z,6.00
2019-05-07T19:04:12.976Z,5.90
2019-05-07T19:06:42.471Z,6.00
2019-05-07T19:09:11.314Z,5.90
2019-05-07T19:11:42.528Z,5.80
2019-05-07T19:14:10.610Z,5.80
2019-05-07T19:16:39.497Z,5.70
2019-05-07T19:19:08.191Z,5.70
2019-05-07T19:21:36.887Z,5.70
2019-05-07T19:24:05.577Z,5.70
2019-05-07T19:26:34.327Z,5.60
2019-05-07T19:29:03.021Z,5.50
2019-05-07T19:31:32.549Z,5.40
2019-05-07T19:34:03.031Z,5.30
2019-05-07T19:36:32.241Z,5.20
2019-05-07T19:39:01.966Z,5.00
2019-05-07T19:41:32.116Z,4.90
2019-05-07T19:44:02.032Z,4.90
2019-05-07T19:46:30.865Z,4.80
2019-05-07T19:48:59.551Z,4.70
2019-05-07T19:51:28.244Z,4.60
2019-05-07T19:53:56.931Z,4.40
2019-05-07T19:56:25.700Z,4.40
2019-05-07T19:58:54.387Z,4.40
2019-05-07T20:01:27.415Z,4.40
2019-05-07T20:03:56.098Z,4.30
2019-05-07T20:06:24.795Z,4.50
2019-05-07T20:08:53.546Z,4.50
2019-05-07T20:11:36.103Z,4.60
2019-05-07T20:14:05.039Z,4.60
2019-05-07T20:16:33.731Z,4.70
2019-05-07T20:19:02.420Z,4.90
2019-05-07T20:21:32.609Z,5.10
2019-05-07T20:24:01.928Z,5.20
2019-05-07T20:26:32.302Z,5.40
2019-05-07T20:29:03.068Z,5.40
2019-05-07T20:31:33.522Z,5.50
2019-05-07T20:34:02.384Z,5.50
2019-05-07T20:36:32.712Z,5.60
2019-05-07T20:39:02.223Z,5.60
2019-05-07T20:41:32.875Z,5.60
2019-05-07T20:44:02.868Z,5.60
2019-05-07T20:46:32.690Z,5.50
2019-05-07T20:49:02.789Z,5.50
2019-05-07T20:51:32.480Z,5.40
2019-05-07T20:54:03.075Z,5.30
2019-05-07T20:56:33.403Z,5.10
2019-05-07T20:59:02.970Z,5.00
2019-05-07T21:01:32.941Z,4.90
2019-05-07T21:04:02.150Z,4.70
2019-05-07T21:06:32.328Z,4.60
2019-05-07T21:09:01.454Z,4.50
2019-05-07T21:11:32.152Z,4.40
2019-05-07T21:14:03.066Z,4.30
2019-05-07T21:16:32.741Z,4.20
2019-05-07T21:19:01.985Z,4.00
2019-05-07T21:21:32.706Z,3.80
2019-05-07T21:24:02.105Z,3.80
2019-05-07T21:26:32.679Z,3.70
2019-05-07T21:29:03.059Z,3.70
2019-05-07T21:31:32.220Z,3.70
2019-05-07T21:34:03.112Z,3.60
2019-05-07T21:36:32.442Z,3.50
2019-05-07T21:39:02.250Z,3.40
2019-05-07T21:41:33.234Z,3.20
2019-05-07T21:44:01.511Z,3.20
2019-05-07T21:46:30.219Z,3.20
2019-05-07T21:48:58.907Z,3.20
2019-05-07T21:51:27.599Z,3.10
2019-05-07T21:54:11.986Z,3.10
2019-05-07T21:56:41.883Z,3.00
2019-05-07T21:59:12.663Z,2.90
2019-05-07T22:01:45.996Z,2.90
2019-05-07T22:04:35.404Z,2.90
2019-05-07T22:07:04.107Z,2.90
2019-05-07T22:09:33.070Z,2.70
2019-05-07T22:12:03.688Z,2.60
2019-05-07T22:14:32.811Z,2.60
2019-05-07T22:17:02.099Z,2.60
2019-05-07T22:19:33.558Z,2.50
2019-05-07T22:22:02.879Z,2.40
2019-05-07T22:24:32.891Z,2.30
2019-05-07T22:27:01.719Z,2.30
2019-05-07T22:29:32.066Z,2.40
2019-05-07T22:32:05.421Z,2.30
2019-05-07T22:34:35.751Z,2.20
2019-05-07T22:37:04.444Z,2.20
2019-05-07T22:39:33.193Z,2.20
2019-05-07T22:42:02.415Z,2.20
2019-05-07T22:44:32.161Z,2.30
2019-05-07T22:47:02.827Z,2.30
2019-05-07T22:49:33.343Z,2.20
2019-05-07T22:52:02.346Z,2.10
2019-05-07T22:54:31.992Z,2.10
2019-05-07T22:57:08.265Z,2.10
2019-05-07T22:59:36.957Z,2.00
2019-05-07T23:02:05.923Z,1.90
2019-05-07T23:04:34.611Z,1.90
2019-05-07T23:07:03.315Z,1.90
2019-05-07T23:09:32.016Z,2.00
2019-05-07T23:12:02.244Z,1.90
2019-05-07T23:14:33.020Z,1.90
2019-05-07T23:17:02.293Z,1.90
2019-05-07T23:19:32.665Z,1.80
2019-05-07T23:22:02.774Z,1.80
2019-05-07T23:24:32.464Z,1.80
2019-05-07T23:27:01.151Z,1.90
2019-05-07T23:29:29.901Z,1.80
2019-05-07T23:31:58.593Z,1.70
2019-05-07T23:34:27.279Z,1.70
2019-05-07T23:36:56.003Z,1.70
2019-05-07T23:39:32.240Z,1.70
2019-05-07T23:42:14.915Z,1.60
2019-05-07T23:44:43.600Z,1.60
2019-05-07T23:47:12.305Z,1.60
2019-05-07T23:49:43.004Z,1.50
2019-05-07T23:52:30.599Z,1.50
2019-05-07T23:54:59.295Z,1.50
2019-05-07T23:57:28.125Z,1.50
2019-05-07T23:59:56.819Z,1.60
